createdAt,value
2022-09-09T00:01:58.638Z,13.00
2022-09-09T00:04:39.727Z,13.00
2022-09-09T00:07:11.044Z,13.00
2022-09-09T00:09:50.152Z,12.90
2022-09-09T00:12:25.688Z,12.90
2022-09-09T00:15:01.487Z,12.90
2022-09-09T00:17:52.092Z,12.90
2022-09-09T00:20:37.714Z,12.90
2022-09-09T00:23:20.681Z,13.00
2022-09-09T00:25:58.558Z,12.90
2022-09-09T00:28:28.088Z,12.90
2022-09-09T00:30:58.300Z,12.90
2022-09-09T00:33:27.473Z,12.90
2022-09-09T00:36:04.231Z,12.90
2022-09-09T00:38:44.892Z,12.90
2022-09-09T00:41:23.832Z,12.90
2022-09-09T00:44:19.618Z,13.00
2022-09-09T00:47:04.974Z,13.00
2022-09-09T00:50:01.051Z,13.10
2022-09-09T00:52:40.294Z,13.20
2022-09-09T00:55:14.225Z,13.30
2022-09-09T00:57:42.515Z,13.40
2022-09-09T01:00:20.411Z,13.40
2022-09-09T01:03:11.435Z,13.50
2022-09-09T01:06:04.374Z,13.60
2022-09-09T01:09:08.723Z,13.70
2022-09-09T01:12:03.868Z,13.70
2022-09-09T01:14:35.247Z,13.80
2022-09-09T01:17:32.100Z,13.80
2022-09-09T01:20:30.070Z,13.90
2022-09-09T01:23:00.867Z,13.90
2022-09-09T01:25:44.750Z,14.00
2022-09-09T01:28:26.459Z,14.00
2022-09-09T01:30:57.542Z,14.00
2022-09-09T01:33:26.207Z,14.10
2022-09-09T01:36:07.335Z,14.10
2022-09-09T01:38:39.601Z,14.10
2022-09-09T01:41:06.442Z,14.20
2022-09-09T01:43:42.705Z,14.20
2022-09-09T01:46:13.138Z,14.20
2022-09-09T01:48:43.437Z,14.10
2022-09-09T01:51:11.877Z,14.00
2022-09-09T01:53:44.790Z,14.00
2022-09-09T01:56:35.828Z,13.90
2022-09-09T01:59:27.617Z,14.00
2022-09-09T02:02:17.627Z,13.90
2022-09-09T02:05:05.498Z,14.00
2022-09-09T02:07:48.622Z,14.00
2022-09-09T02:10:34.166Z,14.00
2022-09-09T02:13:17.263Z,14.00
2022-09-09T02:15:51.934Z,14.00
2022-09-09T02:18:25.400Z,14.00
2022-09-09T02:20:54.231Z,14.00
2022-09-09T02:23:22.242Z,13.90
2022-09-09T02:25:54.713Z,13.90
2022-09-09T02:28:27.446Z,14.00
2022-09-09T02:30:56.392Z,14.00
2022-09-09T02:33:42.535Z,14.00
2022-09-09T02:36:11.194Z,14.00
2022-09-09T02:38:43.478Z,14.10
2022-09-09T02:41:13.757Z,14.10
2022-09-09T02:43:40.927Z,14.10
2022-09-09T02:46:36.290Z,14.20
2022-09-09T02:49:41.213Z,14.30
2022-09-09T02:52:54.893Z,14.30
2022-09-09T02:55:30.461Z,14.30
2022-09-09T02:58:00.575Z,14.40
2022-09-09T03:00:30.419Z,14.40
2022-09-09T03:03:05.180Z,14.40
2022-09-09T03:05:33.643Z,14.40
2022-09-09T03:08:00.698Z,14.50
2022-09-09T03:10:27.738Z,14.50
2022-09-09T03:12:54.609Z,14.60
2022-09-09T03:15:22.373Z,14.60
2022-09-09T03:17:49.185Z,14.60
2022-09-09T03:20:16.120Z,14.70
2022-09-09T03:22:43.094Z,14.70
2022-09-09T03:25:09.999Z,14.60
2022-09-09T03:27:37.456Z,14.60
2022-09-09T03:30:06.090Z,14.70
2022-09-09T03:32:34.056Z,14.70
2022-09-09T03:35:08.668Z,14.70
2022-09-09T03:37:39.863Z,14.60
2022-09-09T03:40:07.839Z,14.60
2022-09-09T03:42:34.666Z,14.60
2022-09-09T03:45:02.625Z,14.70
2022-09-09T03:47:30.064Z,14.80
2022-09-09T03:50:07.187Z,14.80
2022-09-09T03:52:36.451Z,14.80
2022-09-09T03:55:04.711Z,14.90
2022-09-09T03:57:31.779Z,14.90
2022-09-09T04:00:01.929Z,14.90
2022-09-09T04:02:32.681Z,15.00
2022-09-09T04:05:00.795Z,15.00
2022-09-09T04:07:29.101Z,15.00
2022-09-09T04:09:56.733Z,15.00
2022-09-09T04:12:23.697Z,15.00
2022-09-09T04:14:50.655Z,15.10
2022-09-09T04:17:18.260Z,15.10
2022-09-09T04:19:45.172Z,15.10
2022-09-09T04:22:11.971Z,15.10
2022-09-09T04:24:38.950Z,15.10
2022-09-09T04:27:05.778Z,15.10
2022-09-09T04:29:35.234Z,15.10
2022-09-09T04:32:02.792Z,15.20
2022-09-09T04:34:31.397Z,15.20
2022-09-09T04:36:59.783Z,15.20
2022-09-09T04:39:29.053Z,15.10
2022-09-09T04:41:57.008Z,15.10
2022-09-09T04:44:23.784Z,15.20
2022-09-09T04:46:51.076Z,15.20
2022-09-09T04:49:18.927Z,15.20
2022-09-09T04:51:47.946Z,15.20
2022-09-09T04:54:14.949Z,15.30
2022-09-09T04:56:44.377Z,15.30
2022-09-09T04:59:11.898Z,15.30
2022-09-09T05:01:58.027Z,15.30
2022-09-09T05:04:27.897Z,15.40
2022-09-09T05:06:55.497Z,15.40
2022-09-09T05:09:23.737Z,15.50
2022-09-09T05:11:51.495Z,15.50
2022-09-09T05:14:25.301Z,15.50
2022-09-09T05:16:52.633Z,15.60
2022-09-09T05:19:20.768Z,15.60
2022-09-09T05:21:49.451Z,15.60
2022-09-09T05:24:19.160Z,15.80
2022-09-09T05:26:47.948Z,15.90
2022-09-09T05:29:14.989Z,15.90
2022-09-09T05:31:42.521Z,16.00
2022-09-09T05:34:14.567Z,16.10
2022-09-09T05:36:41.660Z,16.20
2022-09-09T05:39:08.944Z,16.30
2022-09-09T05:41:37.211Z,16.40
2022-09-09T05:44:05.213Z,16.40
2022-09-09T05:46:36.675Z,16.50
2022-09-09T05:49:06.520Z,16.50
2022-09-09T05:51:34.520Z,16.50
2022-09-09T05:54:08.712Z,16.50
2022-09-09T05:56:40.153Z,16.50
2022-09-09T05:59:08.288Z,16.50
2022-09-09T06:01:37.295Z,16.60
2022-09-09T06:04:12.090Z,16.70
2022-09-09T06:06:40.846Z,16.70
2022-09-09T06:09:14.422Z,16.80
2022-09-09T06:11:43.459Z,16.90
2022-09-09T06:14:11.235Z,17.00
2022-09-09T06:16:39.557Z,17.20
2022-09-09T06:19:13.819Z,17.30
2022-09-09T06:21:41.864Z,17.40
2022-09-09T06:24:14.927Z,17.40
2022-09-09T06:26:42.613Z,17.50
2022-09-09T06:29:12.407Z,17.60
2022-09-09T06:31:41.355Z,17.70
2022-09-09T06:34:21.752Z,17.80
2022-09-09T06:36:52.629Z,17.80
2022-09-09T06:39:19.559Z,17.90
2022-09-09T06:41:47.429Z,17.90
2022-09-09T06:44:35.519Z,17.90
2022-09-09T06:47:06.970Z,17.90
2022-09-09T06:49:35.961Z,17.90
2022-09-09T06:52:06.395Z,18.00
2022-09-09T06:54:33.468Z,18.00
2022-09-09T06:57:15.656Z,18.00
2022-09-09T06:59:51.966Z,18.10
2022-09-09T07:02:19.971Z,18.40
2022-09-09T07:04:47.758Z,18.40
2022-09-09T07:07:17.055Z,18.50
2022-09-09T07:09:49.198Z,18.60
2022-09-09T07:12:24.111Z,18.70
2022-09-09T07:14:56.415Z,18.80
2022-09-09T07:17:23.309Z,19.20
2022-09-09T07:19:50.267Z,19.50
2022-09-09T07:22:17.731Z,19.80
2022-09-09T07:24:46.028Z,19.90
2022-09-09T07:27:13.627Z,19.90
2022-09-09T07:29:41.237Z,19.90
2022-09-09T07:32:09.263Z,20.00
2022-09-09T07:34:38.133Z,20.10
2022-09-09T07:37:06.271Z,20.20
2022-09-09T07:39:34.953Z,20.50
2022-09-09T07:42:05.972Z,20.40
2022-09-09T07:44:35.798Z,20.20
2022-09-09T07:47:07.346Z,20.20
2022-09-09T07:49:42.055Z,20.10
2022-09-09T07:52:09.695Z,20.00
2022-09-09T07:54:39.439Z,19.80
2022-09-09T07:57:07.159Z,19.90
2022-09-09T07:59:36.157Z,20.00
2022-09-09T08:02:04.137Z,20.10
2022-09-09T08:04:33.373Z,20.40
2022-09-09T08:07:04.350Z,20.70
2022-09-09T08:09:36.345Z,20.90
2022-09-09T08:12:13.959Z,21.40
2022-09-09T08:14:41.082Z,21.50
2022-09-09T08:17:08.014Z,21.60
2022-09-09T08:19:37.651Z,21.70
2022-09-09T08:22:10.453Z,21.70
2022-09-09T08:24:44.590Z,21.70
2022-09-09T08:27:11.865Z,21.60
2022-09-09T08:29:39.439Z,21.50
2022-09-09T08:32:07.041Z,21.60
2022-09-09T08:34:35.200Z,21.70
2022-09-09T08:37:06.890Z,21.80
2022-09-09T08:39:38.471Z,21.80
2022-09-09T08:42:31.434Z,21.90
2022-09-09T08:45:25.679Z,22.10
2022-09-09T08:48:11.376Z,22.20
2022-09-09T08:50:41.366Z,22.20
2022-09-09T08:53:40.422Z,22.30
2022-09-09T08:56:14.827Z,22.40
2022-09-09T08:58:54.059Z,22.50
2022-09-09T09:01:51.535Z,22.90
2022-09-09T09:04:31.383Z,23.60
2022-09-09T09:07:32.929Z,23.70
2022-09-09T09:10:37.697Z,23.80
2022-09-09T09:13:16.864Z,24.50
2022-09-09T09:15:47.451Z,24.80
2022-09-09T09:18:15.124Z,25.30
2022-09-09T09:20:52.936Z,25.60
2022-09-09T09:23:25.335Z,26.40
2022-09-09T09:26:00.608Z,28.00
2022-09-09T09:28:32.569Z,28.70
2022-09-09T09:31:11.806Z,28.60
2022-09-09T09:33:51.705Z,28.40
2022-09-09T09:36:24.510Z,28.40
2022-09-09T09:42:21.585Z,29.70
2022-09-09T09:44:52.030Z,29.50
2022-09-09T09:47:24.754Z,28.60
2022-09-09T09:50:21.388Z,27.70
2022-09-09T09:52:58.953Z,26.70
2022-09-09T09:55:30.932Z,25.90
2022-09-09T09:58:18.411Z,25.80
2022-09-09T10:00:51.235Z,25.80
2022-09-09T10:03:31.469Z,25.50
2022-09-09T10:05:59.431Z,25.00
2022-09-09T10:08:27.930Z,24.40
2022-09-09T10:11:03.058Z,24.10
2022-09-09T10:13:59.392Z,23.90
2022-09-09T10:16:50.151Z,23.80
2022-09-09T10:19:20.164Z,24.40
2022-09-09T10:21:49.866Z,24.40
2022-09-09T10:24:53.717Z,24.40
2022-09-09T10:27:32.478Z,24.20
2022-09-09T10:30:13.946Z,24.00
2022-09-09T10:32:54.130Z,24.10
2022-09-09T10:35:26.902Z,24.20
2022-09-09T10:38:16.436Z,24.30
2022-09-09T10:40:54.132Z,24.30
2022-09-09T10:43:33.137Z,25.20
2022-09-09T10:46:10.094Z,27.50
2022-09-09T10:49:02.224Z,29.20
2022-09-09T10:52:00.200Z,30.70
2022-09-09T10:54:40.586Z,31.80
2022-09-09T10:57:29.415Z,32.50
2022-09-09T11:00:05.420Z,33.20
2022-09-09T11:02:34.490Z,33.80
2022-09-09T11:05:06.327Z,34.20
2022-09-09T11:07:47.740Z,34.70
2022-09-09T11:10:56.135Z,35.10
2022-09-09T11:13:27.007Z,34.00
2022-09-09T11:16:01.478Z,32.70
2022-09-09T11:18:31.812Z,31.40
2022-09-09T11:21:04.601Z,30.00
2022-09-09T11:23:43.634Z,28.90
2022-09-09T11:26:18.599Z,28.00
2022-09-09T11:29:30.360Z,27.20
2022-09-09T11:32:11.876Z,26.50
2022-09-09T11:34:50.816Z,25.90
2022-09-09T11:37:27.722Z,25.50
2022-09-09T11:40:02.123Z,25.00
2022-09-09T11:42:31.946Z,25.60
2022-09-09T11:45:14.833Z,27.40
2022-09-09T11:47:52.046Z,28.30
2022-09-09T11:50:19.536Z,28.90
2022-09-09T11:52:48.349Z,30.40
2022-09-09T11:55:34.040Z,31.80
2022-09-09T11:58:20.343Z,31.90
2022-09-09T12:00:50.968Z,30.80
2022-09-09T12:03:44.325Z,30.20
2022-09-09T12:06:34.522Z,29.40
2022-09-09T12:09:24.429Z,28.50
2022-09-09T12:11:52.477Z,27.80
2022-09-09T12:14:40.232Z,27.10
2022-09-09T12:17:27.346Z,26.30
2022-09-09T12:20:12.549Z,25.40
2022-09-09T12:22:50.872Z,24.70
2022-09-09T12:25:38.790Z,24.10
2022-09-09T12:28:16.061Z,23.70
2022-09-09T12:30:56.910Z,23.20
2022-09-09T12:33:24.539Z,23.10
2022-09-09T12:36:02.300Z,23.20
2022-09-09T12:38:38.972Z,23.30
2022-09-09T12:41:06.122Z,23.40
2022-09-09T12:43:33.245Z,23.20
2022-09-09T12:46:10.497Z,23.20
2022-09-09T12:48:45.165Z,23.30
2022-09-09T12:51:38.748Z,23.30
2022-09-09T12:54:06.236Z,23.30
2022-09-09T12:56:34.197Z,23.20
2022-09-09T12:59:23.963Z,23.30
2022-09-09T13:01:57.930Z,23.10
2022-09-09T13:04:24.750Z,23.00
2022-09-09T13:06:53.258Z,23.00
2022-09-09T13:09:20.991Z,22.90
2022-09-09T13:12:23.927Z,23.00
2022-09-09T13:14:54.479Z,23.20
2022-09-09T13:17:28.193Z,23.40
2022-09-09T13:19:56.650Z,23.50
2022-09-09T13:22:33.755Z,23.50
2022-09-09T13:25:28.672Z,23.50
2022-09-09T13:28:03.639Z,23.40
2022-09-09T13:30:41.272Z,23.20
2022-09-09T13:33:23.953Z,23.10
2022-09-09T13:36:00.087Z,23.00
2022-09-09T13:38:29.924Z,23.00
2022-09-09T13:41:10.982Z,22.90
2022-09-09T13:43:43.439Z,22.90
2022-09-09T13:46:33.051Z,22.90
2022-09-09T13:49:09.889Z,22.80
2022-09-09T13:51:47.781Z,22.70
2022-09-09T13:54:17.134Z,22.80
2022-09-09T13:56:44.830Z,23.20
2022-09-09T13:59:17.197Z,23.30
2022-09-09T14:01:45.242Z,23.30
2022-09-09T14:04:12.167Z,23.10
2022-09-09T14:06:40.379Z,23.00
2022-09-09T14:09:08.315Z,23.10
2022-09-09T14:11:35.312Z,23.20
2022-09-09T14:14:04.827Z,23.40
2022-09-09T14:16:31.786Z,23.60
2022-09-09T14:19:00.165Z,23.70
2022-09-09T14:21:28.625Z,23.80
2022-09-09T14:24:10.557Z,23.90
2022-09-09T14:26:38.102Z,23.90
2022-09-09T14:29:05.151Z,23.80
2022-09-09T14:31:31.902Z,23.70
2022-09-09T14:33:59.754Z,23.60
2022-09-09T14:36:26.759Z,23.50
2022-09-09T14:38:53.699Z,23.40
2022-09-09T14:41:23.475Z,23.30
2022-09-09T14:43:51.139Z,23.20
2022-09-09T14:46:19.951Z,23.10
2022-09-09T14:48:49.418Z,23.00
2022-09-09T14:51:23.354Z,23.00
2022-09-09T14:53:56.528Z,23.00
2022-09-09T14:56:29.017Z,23.00
2022-09-09T14:58:57.235Z,23.00
2022-09-09T15:01:25.398Z,22.90
2022-09-09T15:03:58.972Z,22.80
2022-09-09T15:06:28.772Z,22.70
2022-09-09T15:08:58.588Z,22.60
2022-09-09T15:11:28.810Z,22.60
2022-09-09T15:13:55.874Z,22.60
2022-09-09T15:16:24.769Z,22.60
2022-09-09T15:19:00.184Z,22.60
2022-09-09T15:21:29.961Z,22.60
2022-09-09T15:23:57.922Z,22.40
2022-09-09T15:26:26.136Z,22.20
2022-09-09T15:28:53.137Z,22.00
2022-09-09T15:31:22.389Z,21.90
2022-09-09T15:34:01.925Z,21.80
2022-09-09T15:36:44.022Z,21.80
2022-09-09T15:39:18.719Z,22.00
2022-09-09T15:41:49.577Z,22.10
2022-09-09T15:44:16.779Z,22.20
2022-09-09T15:46:52.266Z,22.20
2022-09-09T15:49:28.071Z,22.10
2022-09-09T15:51:58.288Z,22.00
2022-09-09T15:54:27.163Z,21.80
2022-09-09T15:56:57.304Z,21.70
2022-09-09T15:59:25.391Z,21.50
2022-09-09T16:01:52.671Z,21.40
2022-09-09T16:04:26.082Z,21.30
2022-09-09T16:06:59.396Z,21.20
2022-09-09T16:09:28.466Z,21.00
2022-09-09T16:12:01.664Z,20.90
2022-09-09T16:14:28.849Z,20.70
2022-09-09T16:16:56.629Z,20.60
2022-09-09T16:19:23.534Z,20.50
2022-09-09T16:21:50.926Z,20.40
2022-09-09T16:24:20.497Z,20.40
2022-09-09T16:26:52.321Z,20.30
2022-09-09T16:29:20.282Z,20.30
2022-09-09T16:31:47.997Z,20.20
2022-09-09T16:34:16.181Z,20.20
2022-09-09T16:36:44.725Z,20.10
2022-09-09T16:39:17.420Z,20.10
2022-09-09T16:41:46.012Z,20.10
2022-09-09T16:44:14.269Z,20.20
2022-09-09T16:46:45.112Z,20.20
2022-09-09T16:49:19.200Z,20.20
2022-09-09T16:51:50.704Z,20.20
2022-09-09T16:54:19.283Z,20.20
2022-09-09T16:56:48.425Z,20.20
2022-09-09T16:59:17.490Z,20.30
2022-09-09T17:01:50.682Z,20.30
2022-09-09T17:04:21.705Z,20.40
2022-09-09T17:06:53.470Z,20.50
2022-09-09T17:09:22.082Z,20.60
2022-09-09T17:11:51.395Z,20.70
2022-09-09T17:14:19.943Z,20.70
2022-09-09T17:16:47.661Z,20.70
2022-09-09T17:19:15.047Z,20.70
2022-09-09T17:22:05.883Z,20.60
2022-09-09T17:24:33.010Z,20.50
2022-09-09T17:27:00.029Z,20.40
2022-09-09T17:29:27.005Z,20.30
2022-09-09T17:31:55.053Z,20.20
2022-09-09T17:34:22.367Z,20.10
2022-09-09T17:36:49.396Z,20.10
2022-09-09T17:39:16.337Z,20.10
2022-09-09T17:41:43.284Z,19.90
2022-09-09T17:44:10.885Z,19.80
2022-09-09T17:46:44.074Z,19.70
2022-09-09T17:49:14.435Z,19.60
2022-09-09T17:51:42.916Z,19.50
2022-09-09T17:54:16.167Z,19.40
2022-09-09T17:56:51.015Z,19.30
2022-09-09T17:59:18.982Z,19.20
2022-09-09T18:01:49.371Z,19.10
2022-09-09T18:04:17.697Z,19.10
2022-09-09T18:06:47.438Z,18.90
2022-09-09T18:09:16.925Z,18.90
2022-09-09T18:11:49.955Z,18.80
2022-09-09T18:14:22.718Z,18.70
2022-09-09T18:16:50.214Z,18.60
2022-09-09T18:19:20.993Z,18.50
2022-09-09T18:21:49.242Z,18.40
2022-09-09T18:24:17.787Z,18.30
2022-09-09T18:26:45.603Z,18.20
2022-09-09T18:29:15.576Z,18.10
2022-09-09T18:31:42.542Z,18.00
2022-09-09T18:34:12.439Z,17.90
2022-09-09T18:36:48.095Z,17.70
2022-09-09T18:39:17.888Z,17.70
2022-09-09T18:41:53.882Z,17.50
2022-09-09T18:44:24.729Z,17.40
2022-09-09T18:46:52.522Z,17.40
2022-09-09T18:49:21.696Z,17.40
2022-09-09T18:51:48.718Z,17.40
2022-09-09T18:54:20.274Z,17.40
2022-09-09T18:56:47.802Z,17.40
2022-09-09T18:59:19.655Z,17.40
2022-09-09T19:01:51.159Z,17.30
2022-09-09T19:04:19.199Z,17.30
2022-09-09T19:06:48.475Z,17.40
2022-09-09T19:09:18.417Z,17.30
2022-09-09T19:11:51.557Z,17.20
2022-09-09T19:14:19.244Z,17.20
2022-09-09T19:16:48.481Z,17.20
2022-09-09T19:19:27.732Z,17.20
2022-09-09T19:21:57.586Z,17.20
2022-09-09T19:24:27.671Z,17.10
2022-09-09T19:27:04.694Z,17.10
2022-09-09T19:29:33.788Z,17.00
2022-09-09T19:32:49.435Z,17.00
2022-09-09T19:34:52.514Z,17.00
2022-09-09T19:37:19.722Z,16.90
2022-09-09T19:39:47.783Z,16.90
2022-09-09T19:42:15.027Z,16.80
2022-09-09T19:44:41.945Z,16.80
2022-09-09T19:47:22.547Z,16.70
2022-09-09T19:49:52.687Z,16.70
2022-09-09T19:52:19.529Z,16.70
2022-09-09T19:54:47.119Z,16.70
2022-09-09T19:57:14.160Z,16.70
2022-09-09T19:59:41.002Z,16.70
2022-09-09T20:02:09.283Z,16.70
2022-09-09T20:04:36.136Z,16.70
2022-09-09T20:07:02.953Z,16.70
2022-09-09T20:09:30.375Z,16.60
2022-09-09T20:11:57.852Z,16.70
2022-09-09T20:14:24.844Z,16.70
2022-09-09T20:16:52.186Z,16.70
2022-09-09T20:19:25.564Z,16.70
2022-09-09T20:21:58.944Z,16.70
2022-09-09T20:24:26.147Z,16.60
2022-09-09T20:26:52.990Z,16.50
2022-09-09T20:29:20.323Z,16.50
2022-09-09T20:31:48.365Z,16.40
2022-09-09T20:34:18.660Z,16.30
2022-09-09T20:36:46.372Z,16.20
2022-09-09T20:39:16.071Z,16.20
2022-09-09T20:41:44.565Z,16.00
2022-09-09T20:44:14.627Z,15.90
2022-09-09T20:46:44.310Z,15.90
2022-09-09T20:49:11.927Z,15.80
2022-09-09T20:51:38.774Z,15.80
2022-09-09T20:54:07.440Z,15.70
2022-09-09T20:56:37.583Z,15.70
2022-09-09T20:59:06.305Z,15.70
2022-09-09T21:01:46.883Z,15.70
2022-09-09T21:04:15.435Z,15.70
2022-09-09T21:06:42.236Z,15.70
2022-09-09T21:09:15.316Z,15.70
2022-09-09T21:11:42.346Z,15.70
2022-09-09T21:14:09.978Z,15.70
2022-09-09T21:16:36.780Z,15.60
2022-09-09T21:19:04.472Z,15.60
2022-09-09T21:21:37.675Z,15.60
2022-09-09T21:24:09.833Z,15.50
2022-09-09T21:26:36.588Z,15.50
2022-09-09T21:29:16.813Z,15.50
2022-09-09T21:31:50.494Z,15.40
2022-09-09T21:34:18.408Z,15.40
2022-09-09T21:36:45.370Z,15.30
2022-09-09T21:39:12.302Z,15.30
2022-09-09T21:41:39.258Z,15.30
2022-09-09T21:44:07.624Z,15.30
2022-09-09T21:46:34.647Z,15.30
2022-09-09T21:49:03.491Z,15.20
2022-09-09T21:51:30.292Z,15.20
2022-09-09T21:53:57.367Z,15.20
2022-09-09T21:56:24.544Z,15.10
2022-09-09T21:58:59.585Z,15.00
2022-09-09T22:01:26.794Z,14.90
2022-09-09T22:03:53.996Z,14.90
2022-09-09T22:06:20.790Z,14.90
2022-09-09T22:08:47.827Z,14.80
2022-09-09T22:11:17.142Z,14.80
2022-09-09T22:13:47.270Z,14.70
2022-09-09T22:16:17.836Z,14.60
2022-09-09T22:18:50.521Z,14.60
2022-09-09T22:21:18.784Z,14.60
2022-09-09T22:23:55.089Z,14.50
2022-09-09T22:26:27.098Z,14.50
2022-09-09T22:28:54.114Z,14.40
2022-09-09T22:31:22.574Z,14.40
2022-09-09T22:33:50.301Z,14.40
2022-09-09T22:36:17.592Z,14.40
2022-09-09T22:38:44.358Z,14.50
2022-09-09T22:41:11.132Z,14.50
2022-09-09T22:43:37.931Z,14.50
2022-09-09T22:46:04.755Z,14.60
2022-09-09T22:48:36.091Z,14.60
2022-09-09T22:51:08.334Z,14.80
2022-09-09T22:53:36.101Z,14.80
2022-09-09T22:56:06.021Z,14.90
2022-09-09T22:58:34.516Z,14.90
2022-09-09T23:01:07.475Z,15.00
2022-09-09T23:03:34.203Z,15.00
2022-09-09T23:06:03.523Z,15.00
2022-09-09T23:08:36.501Z,15.10
2022-09-09T23:11:11.599Z,15.10
2022-09-09T23:13:43.822Z,15.20
2022-09-09T23:16:28.743Z,15.20
2022-09-09T23:19:01.832Z,15.30
2022-09-09T23:21:30.195Z,15.30
2022-09-09T23:23:59.034Z,15.40
2022-09-09T23:26:27.047Z,15.50
2022-09-09T23:28:55.833Z,15.50
2022-09-09T23:31:24.810Z,15.60
2022-09-09T23:33:54.429Z,15.70
2022-09-09T23:36:23.212Z,15.70
2022-09-09T23:38:50.013Z,15.70
2022-09-09T23:41:21.943Z,15.70
2022-09-09T23:43:50.115Z,15.70
2022-09-09T23:46:20.294Z,15.70
2022-09-09T23:48:51.546Z,15.70
2022-09-09T23:51:23.628Z,15.60
2022-09-09T23:53:52.947Z,15.60
2022-09-09T23:56:32.388Z,15.70
2022-09-09T23:58:59.972Z,15.60
